createdAt,value
2022-08-12T00:02:03.173Z,1.70
2022-08-12T00:04:52.331Z,1.70
2022-08-12T00:07:38.223Z,1.77
2022-08-12T00:10:24.059Z,1.70
2022-08-12T00:13:09.995Z,1.70
2022-08-12T00:15:56.064Z,1.53
2022-08-12T00:18:41.998Z,1.70
2022-08-12T00:21:28.021Z,1.43
2022-08-12T00:24:14.201Z,2.00
2022-08-12T00:27:00.576Z,1.63
2022-08-12T00:29:48.130Z,1.70
2022-08-12T00:32:36.043Z,1.83
2022-08-12T00:35:24.419Z,1.57
2022-08-12T00:38:21.042Z,1.80
2022-08-12T00:41:06.744Z,1.57
2022-08-12T00:43:36.179Z,1.60
2022-08-12T00:46:22.176Z,1.80
2022-08-12T00:48:49.911Z,1.90
2022-08-12T00:51:17.241Z,1.60
2022-08-12T00:53:44.458Z,1.80
2022-08-12T00:56:11.687Z,1.67
2022-08-12T00:58:40.158Z,1.80
2022-08-12T01:01:09.172Z,1.60
2022-08-12T01:03:57.424Z,1.73
2022-08-12T01:06:46.354Z,1.53
2022-08-12T01:09:37.403Z,1.83
2022-08-12T01:12:06.364Z,1.43
2022-08-12T01:14:33.796Z,1.70
2022-08-12T01:17:01.011Z,1.77
2022-08-12T01:19:28.141Z,1.60
2022-08-12T01:21:58.077Z,1.60
2022-08-12T01:24:48.351Z,1.97
2022-08-12T01:27:16.639Z,1.90
2022-08-12T01:29:44.871Z,1.70
2022-08-12T01:32:14.290Z,1.77
2022-08-12T01:34:45.324Z,1.67
2022-08-12T01:37:14.172Z,1.83
2022-08-12T01:40:34.776Z,1.60
2022-08-12T01:42:43.301Z,1.53
2022-08-12T01:45:12.292Z,1.80
2022-08-12T01:47:49.847Z,1.63
2022-08-12T01:50:16.966Z,1.97
2022-08-12T01:52:44.755Z,1.60
2022-08-12T01:55:13.590Z,1.70
2022-08-12T01:57:59.104Z,1.53
2022-08-12T02:00:43.414Z,1.70
2022-08-12T02:03:13.210Z,1.90
2022-08-12T02:06:01.603Z,1.70
2022-08-12T02:08:47.547Z,1.70
2022-08-12T02:11:29.463Z,1.90
2022-08-12T02:14:11.565Z,1.80
2022-08-12T02:16:51.102Z,1.90
2022-08-12T02:19:37.574Z,1.77
2022-08-12T02:22:23.703Z,1.80
2022-08-12T02:24:51.332Z,1.70
2022-08-12T02:27:19.771Z,1.77
2022-08-12T02:29:48.230Z,1.90
2022-08-12T02:32:15.554Z,1.80
2022-08-12T02:34:44.569Z,1.80
2022-08-12T02:37:15.329Z,1.80
2022-08-12T02:39:47.838Z,1.70
2022-08-12T02:42:16.145Z,1.83
2022-08-12T02:44:45.420Z,1.50
2022-08-12T02:47:58.929Z,1.70
2022-08-12T02:50:04.143Z,1.40
2022-08-12T02:52:32.336Z,1.60
2022-08-12T02:55:13.304Z,1.80
2022-08-12T02:58:04.167Z,1.73
2022-08-12T03:00:34.704Z,2.07
2022-08-12T03:03:04.099Z,1.77
2022-08-12T03:05:33.347Z,1.57
2022-08-12T03:08:25.699Z,1.60
2022-08-12T03:11:11.705Z,1.83
2022-08-12T03:13:43.230Z,1.83
2022-08-12T03:16:10.792Z,1.90
2022-08-12T03:18:38.299Z,1.73
2022-08-12T03:21:05.557Z,1.70
2022-08-12T03:23:32.857Z,1.60
2022-08-12T03:26:01.822Z,2.10
2022-08-12T03:28:48.575Z,1.97
2022-08-12T03:31:16.763Z,1.77
2022-08-12T03:33:48.190Z,2.00
2022-08-12T03:36:30.406Z,1.73
2022-08-12T03:39:16.483Z,2.00
2022-08-12T03:41:57.997Z,1.93
2022-08-12T03:44:50.905Z,1.83
2022-08-12T03:47:36.966Z,2.07
2022-08-12T03:50:23.349Z,1.87
2022-08-12T03:53:09.933Z,1.90
2022-08-12T03:55:55.970Z,2.00
2022-08-12T03:58:41.748Z,1.90
2022-08-12T04:01:09.119Z,2.00
2022-08-12T04:03:52.917Z,1.70
2022-08-12T04:06:34.878Z,1.90
2022-08-12T04:09:14.871Z,2.07
2022-08-12T04:12:02.691Z,1.50
2022-08-12T04:14:29.824Z,1.80
2022-08-12T04:16:57.375Z,2.00
2022-08-12T04:19:26.124Z,2.00
2022-08-12T04:22:02.224Z,2.00
2022-08-12T04:24:35.513Z,1.93
2022-08-12T04:27:05.122Z,2.07
2022-08-12T04:30:30.734Z,2.00
2022-08-12T04:32:19.690Z,1.60
2022-08-12T04:34:46.880Z,2.10
2022-08-12T04:37:16.025Z,2.00
2022-08-12T04:39:44.837Z,2.10
2022-08-12T04:42:12.494Z,2.00
2022-08-12T04:44:40.149Z,1.97
2022-08-12T04:47:07.494Z,2.10
2022-08-12T04:49:35.458Z,2.10
2022-08-12T04:52:03.248Z,2.10
2022-08-12T04:54:31.548Z,2.00
2022-08-12T04:57:04.234Z,2.40
2022-08-12T04:59:46.991Z,2.30
2022-08-12T05:02:17.188Z,2.13
2022-08-12T05:04:49.533Z,2.00
2022-08-12T05:07:16.667Z,2.27
2022-08-12T05:10:01.103Z,2.20
2022-08-12T05:12:33.995Z,2.20
2022-08-12T05:15:01.346Z,2.37
2022-08-12T05:17:28.608Z,2.37
2022-08-12T05:19:57.288Z,2.13
2022-08-12T05:22:25.160Z,2.10
2022-08-12T05:24:52.672Z,2.27
2022-08-12T05:27:20.804Z,2.10
2022-08-12T05:30:05.557Z,2.30
2022-08-12T05:32:35.807Z,2.40
2022-08-12T05:35:06.467Z,2.77
2022-08-12T05:37:34.840Z,2.80
2022-08-12T05:40:05.645Z,2.60
2022-08-12T05:42:35.576Z,2.50
2022-08-12T05:45:02.762Z,2.70
2022-08-12T05:47:36.553Z,2.70
2022-08-12T05:50:17.192Z,2.37
2022-08-12T05:52:44.392Z,2.20
2022-08-12T05:55:11.815Z,2.73
2022-08-12T05:57:39.930Z,2.50
2022-08-12T06:00:07.600Z,2.30
2022-08-12T06:02:35.507Z,2.47
2022-08-12T06:05:02.967Z,2.57
2022-08-12T06:08:00.590Z,2.40
2022-08-12T06:10:32.327Z,2.60
2022-08-12T06:13:02.545Z,2.40
2022-08-12T06:15:30.270Z,2.50
2022-08-12T06:18:16.122Z,2.67
2022-08-12T06:20:43.929Z,2.50
2022-08-12T06:23:11.884Z,2.37
2022-08-12T06:25:39.248Z,2.50
2022-08-12T06:28:17.412Z,2.40
2022-08-12T06:30:53.077Z,2.43
2022-08-12T06:33:56.077Z,2.17
2022-08-12T06:36:23.230Z,2.53
2022-08-12T06:38:50.914Z,2.37
2022-08-12T06:41:37.193Z,2.30
2022-08-12T06:44:07.789Z,2.23
2022-08-12T06:46:37.095Z,2.57
2022-08-12T06:49:04.512Z,2.13
2022-08-12T06:51:32.743Z,2.27
2022-08-12T06:54:00.723Z,2.20
2022-08-12T06:56:59.701Z,2.60
2022-08-12T06:59:15.752Z,2.37
2022-08-12T07:01:51.125Z,2.10
2022-08-12T07:04:36.825Z,2.33
2022-08-12T07:07:09.229Z,2.10
2022-08-12T07:10:06.818Z,2.47
2022-08-12T07:12:27.744Z,2.10
2022-08-12T07:14:55.450Z,2.07
2022-08-12T07:17:22.626Z,2.30
2022-08-12T07:19:51.846Z,2.53
2022-08-12T07:22:19.203Z,2.10
2022-08-12T07:25:06.367Z,1.93
2022-08-12T07:27:38.499Z,2.27
2022-08-12T07:30:07.344Z,2.30
2022-08-12T07:32:34.498Z,1.93
2022-08-12T07:35:03.263Z,2.33
2022-08-12T07:37:30.938Z,2.13
2022-08-12T07:40:00.368Z,2.47
2022-08-12T07:42:28.435Z,2.13
2022-08-12T07:44:56.338Z,2.60
2022-08-12T07:47:24.019Z,2.33
2022-08-12T07:50:06.275Z,2.00
2022-08-12T07:52:37.188Z,2.40
2022-08-12T07:55:04.872Z,2.30
2022-08-12T07:57:35.238Z,2.53
2022-08-12T08:00:05.282Z,2.40
2022-08-12T08:02:33.678Z,2.17
2022-08-12T08:05:00.897Z,2.20
2022-08-12T08:07:30.947Z,2.30
2022-08-12T08:09:59.448Z,2.20
2022-08-12T08:12:47.135Z,2.23
2022-08-12T08:15:15.116Z,2.20
2022-08-12T08:17:57.906Z,2.10
2022-08-12T08:20:28.714Z,2.00
2022-08-12T08:22:59.413Z,2.00
2022-08-12T08:25:35.846Z,1.90
2022-08-12T08:28:06.032Z,2.20
2022-08-12T08:30:33.533Z,2.00
2022-08-12T08:33:00.748Z,1.90
2022-08-12T08:35:46.222Z,1.50
2022-08-12T08:38:30.733Z,1.57
2022-08-12T08:42:13.924Z,1.97
2022-08-12T08:44:06.918Z,1.70
2022-08-12T08:46:37.720Z,1.53
2022-08-12T08:49:05.623Z,1.90
2022-08-12T08:51:33.492Z,1.53
2022-08-12T08:54:00.627Z,1.67
2022-08-12T08:56:29.611Z,1.63
2022-08-12T08:58:57.598Z,1.53
2022-08-12T09:01:24.955Z,1.50
2022-08-12T09:06:42.071Z,1.60
2022-08-12T09:09:21.497Z,1.63
2022-08-12T09:12:12.173Z,1.40
2022-08-12T09:14:46.907Z,1.58
2022-08-12T09:17:21.401Z,1.50
2022-08-12T09:19:57.439Z,1.57
2022-08-12T09:22:28.580Z,1.43
2022-08-12T09:24:59.758Z,1.20
2022-08-12T09:28:03.576Z,1.25
2022-08-12T09:30:16.555Z,1.13
2022-08-12T09:33:03.919Z,1.13
2022-08-12T09:35:33.673Z,1.17
2022-08-12T09:38:28.123Z,1.40
2022-08-12T09:42:07.614Z,1.42
2022-08-12T09:44:05.167Z,1.20
2022-08-12T09:46:34.505Z,1.50
2022-08-12T09:49:04.080Z,1.40
2022-08-12T09:51:43.826Z,1.70
2022-08-12T09:54:33.292Z,1.40
2022-08-12T09:58:07.105Z,1.57
2022-08-12T10:00:12.729Z,1.60
2022-08-12T10:02:45.303Z,1.60
2022-08-12T10:05:17.747Z,1.50
2022-08-12T10:07:45.118Z,1.60
2022-08-12T10:10:24.199Z,1.77
2022-08-12T10:13:13.940Z,1.73
2022-08-12T10:16:02.711Z,1.60
2022-08-12T10:18:32.787Z,1.70
2022-08-12T10:21:05.586Z,1.60
2022-08-12T10:23:40.154Z,1.70
2022-08-12T10:26:37.520Z,1.60
2022-08-12T10:30:03.473Z,1.60
2022-08-12T10:32:21.723Z,1.53
2022-08-12T10:34:53.488Z,1.50
2022-08-12T10:38:37.600Z,1.60
2022-08-12T10:40:15.745Z,1.70
2022-08-12T10:43:06.467Z,1.60
2022-08-12T10:45:38.044Z,1.60
2022-08-12T10:48:21.146Z,1.70
2022-08-12T10:51:02.612Z,1.67
2022-08-12T10:53:45.742Z,1.80
2022-08-12T10:56:17.438Z,1.40
2022-08-12T10:58:47.268Z,1.57
2022-08-12T11:04:14.153Z,1.60
2022-08-12T11:04:31.873Z,1.80
2022-08-12T11:07:06.997Z,1.63
2022-08-12T11:09:41.698Z,1.80
2022-08-12T11:12:56.544Z,1.70
2022-08-12T11:15:20.980Z,1.60
2022-08-12T11:17:53.677Z,1.47
2022-08-12T11:20:24.006Z,1.40
2022-08-12T11:22:59.571Z,1.63
2022-08-12T11:25:56.893Z,1.70
2022-08-12T11:28:15.022Z,1.43
2022-08-12T11:30:43.502Z,1.50
2022-08-12T11:33:11.959Z,1.43
2022-08-12T11:35:42.931Z,1.80
2022-08-12T11:38:13.164Z,1.33
2022-08-12T11:40:47.560Z,1.50
2022-08-12T11:43:19.644Z,1.37
2022-08-12T11:45:47.959Z,2.10
2022-08-12T11:48:20.569Z,1.83
2022-08-12T11:50:54.518Z,1.80
2022-08-12T11:53:58.597Z,1.70
2022-08-12T11:56:11.333Z,1.57
2022-08-12T12:01:02.739Z,1.50
2022-08-12T12:02:02.219Z,1.53
2022-08-12T12:04:28.954Z,1.60
2022-08-12T12:06:56.709Z,1.60
2022-08-12T12:09:53.065Z,1.40
2022-08-12T12:12:22.461Z,1.90
2022-08-12T12:14:54.756Z,1.80
2022-08-12T12:17:24.016Z,1.70
2022-08-12T12:19:51.381Z,1.27
2022-08-12T12:22:23.583Z,1.60
2022-08-12T12:24:54.511Z,1.60
2022-08-12T12:27:42.259Z,1.57
2022-08-12T12:30:18.701Z,1.80
2022-08-12T12:32:56.334Z,1.50
2022-08-12T12:36:06.172Z,1.60
2022-08-12T12:38:12.565Z,1.70
2022-08-12T12:40:44.486Z,1.63
2022-08-12T12:43:13.785Z,1.87
2022-08-12T12:45:44.126Z,1.70
2022-08-12T12:48:14.324Z,1.60
2022-08-12T12:50:51.481Z,1.50
2022-08-12T12:54:06.468Z,1.60
2022-08-12T12:56:11.123Z,1.60
2022-08-12T12:58:40.077Z,1.37
2022-08-12T13:01:25.384Z,1.70
2022-08-12T13:03:56.416Z,1.70
2022-08-12T13:06:30.242Z,1.50
2022-08-12T13:09:02.611Z,1.50
2022-08-12T13:11:41.390Z,1.70
2022-08-12T13:14:13.067Z,1.43
2022-08-12T13:16:57.672Z,1.50
2022-08-12T13:19:36.632Z,1.80
2022-08-12T13:22:18.645Z,1.80
2022-08-12T13:24:46.949Z,1.60
2022-08-12T13:27:22.587Z,1.50
2022-08-12T13:29:49.730Z,1.50
2022-08-12T13:32:28.327Z,1.50
2022-08-12T13:35:04.298Z,1.40
2022-08-12T13:37:54.699Z,1.60
2022-08-12T13:40:24.827Z,1.40
2022-08-12T13:42:52.898Z,1.37
2022-08-12T13:45:20.066Z,1.30
2022-08-12T13:47:55.295Z,1.80
2022-08-12T13:50:26.763Z,1.40
2022-08-12T13:52:54.505Z,1.27
2022-08-12T13:55:22.923Z,1.40
2022-08-12T13:57:59.859Z,1.50
2022-08-12T14:00:34.016Z,1.60
2022-08-12T14:03:05.952Z,1.50
2022-08-12T14:05:38.899Z,1.50
2022-08-12T14:08:07.229Z,1.60
2022-08-12T14:10:37.394Z,1.40
2022-08-12T14:13:10.292Z,1.80
2022-08-12T14:15:38.946Z,1.77
2022-08-12T14:18:07.933Z,1.50
2022-08-12T14:20:35.198Z,1.40
2022-08-12T14:24:01.507Z,1.70
2022-08-12T14:25:51.397Z,1.70
2022-08-12T14:28:20.071Z,1.73
2022-08-12T14:31:00.389Z,1.60
2022-08-12T14:33:31.348Z,1.30
2022-08-12T14:36:12.754Z,1.20
2022-08-12T14:38:41.569Z,1.40
2022-08-12T14:41:10.396Z,1.60
2022-08-12T14:43:59.332Z,1.57
2022-08-12T14:46:27.213Z,1.50
2022-08-12T14:48:55.655Z,1.50
2022-08-12T14:52:43.303Z,1.47
2022-08-12T14:57:00.004Z,1.40
2022-08-12T14:57:19.561Z,1.40
2022-08-12T15:00:04.400Z,1.30
2022-08-12T15:02:31.549Z,1.47
2022-08-12T15:05:03.743Z,1.63
2022-08-12T15:07:33.868Z,1.60
2022-08-12T15:10:31.077Z,1.50
2022-08-12T15:12:59.191Z,1.40
2022-08-12T15:15:26.316Z,1.27
2022-08-12T15:18:02.141Z,1.47
2022-08-12T15:20:37.294Z,1.30
2022-08-12T15:23:18.075Z,1.30
2022-08-12T15:25:49.161Z,1.50
2022-08-12T15:28:28.667Z,1.40
2022-08-12T15:30:58.024Z,1.63
2022-08-12T15:33:45.422Z,1.50
2022-08-12T15:36:14.023Z,1.50
2022-08-12T15:38:41.929Z,1.50
2022-08-12T15:41:13.101Z,1.47
2022-08-12T15:44:15.878Z,1.40
2022-08-12T15:46:32.365Z,1.33
2022-08-12T15:49:00.091Z,1.30
2022-08-12T15:51:58.724Z,1.50
2022-08-12T15:54:34.016Z,1.47
2022-08-12T15:57:05.516Z,1.60
2022-08-12T16:00:03.658Z,1.50
2022-08-12T16:02:21.136Z,1.57
2022-08-12T16:04:50.467Z,1.30
2022-08-12T16:07:21.711Z,1.60
2022-08-12T16:10:06.172Z,1.50
2022-08-12T16:12:41.906Z,1.43
2022-08-12T16:15:11.697Z,1.33
2022-08-12T16:18:17.879Z,1.20
2022-08-12T16:20:33.676Z,1.37
2022-08-12T16:23:26.247Z,1.60
2022-08-12T16:26:05.293Z,1.30
2022-08-12T16:28:41.669Z,1.40
2022-08-12T16:31:13.272Z,1.20
2022-08-12T16:33:59.346Z,1.30
2022-08-12T16:36:28.503Z,1.50
2022-08-12T16:38:55.650Z,1.20
2022-08-12T16:41:23.523Z,1.30
2022-08-12T16:43:52.958Z,1.30
2022-08-12T16:46:31.433Z,1.20
2022-08-12T16:49:09.111Z,1.20
2022-08-12T16:51:46.480Z,1.30
2022-08-12T16:54:15.960Z,1.37
2022-08-12T16:56:55.352Z,1.40
2022-08-12T16:59:30.601Z,1.40
2022-08-12T17:01:58.680Z,1.40
2022-08-12T17:04:27.628Z,1.10
2022-08-12T17:06:54.828Z,1.40
2022-08-12T17:09:22.591Z,1.40
2022-08-12T17:11:50.445Z,1.20
2022-08-12T17:14:20.319Z,1.37
2022-08-12T17:16:52.005Z,1.30
2022-08-12T17:19:20.112Z,1.40
2022-08-12T17:22:07.999Z,1.40
2022-08-12T17:24:36.586Z,1.37
2022-08-12T17:27:09.721Z,1.47
2022-08-12T17:30:02.900Z,1.60
2022-08-12T17:32:33.599Z,1.50
2022-08-12T17:35:19.583Z,1.60
2022-08-12T17:37:48.503Z,1.50
2022-08-12T17:40:34.904Z,1.33
2022-08-12T17:43:56.008Z,1.40
2022-08-12T17:45:53.243Z,1.33
2022-08-12T17:48:21.802Z,1.40
2022-08-12T17:50:51.748Z,1.50
2022-08-12T17:53:20.115Z,1.40
2022-08-12T17:55:52.160Z,1.40
2022-08-12T17:58:35.779Z,1.70
2022-08-12T18:01:05.906Z,1.50
2022-08-12T18:04:05.207Z,1.70
2022-08-12T18:06:27.904Z,1.50
2022-08-12T18:08:56.998Z,1.50
2022-08-12T18:12:05.951Z,1.43
2022-08-12T18:14:37.033Z,1.50
2022-08-12T18:17:08.711Z,1.80
2022-08-12T18:20:06.134Z,1.50
2022-08-12T18:22:39.434Z,1.50
2022-08-12T18:25:37.861Z,1.50
2022-08-12T18:28:16.026Z,1.57
2022-08-12T18:30:45.118Z,1.53
2022-08-12T18:33:20.102Z,1.60
2022-08-12T18:35:53.496Z,1.50
2022-08-12T18:38:22.224Z,1.77
2022-08-12T18:41:09.842Z,1.70
2022-08-12T18:43:59.358Z,1.60
2022-08-12T18:46:29.969Z,1.60
2022-08-12T18:49:17.182Z,1.57
2022-08-12T18:51:55.574Z,1.87
2022-08-12T18:54:53.324Z,1.97
2022-08-12T18:58:05.895Z,1.63
2022-08-12T19:00:18.751Z,1.80
2022-08-12T19:02:49.653Z,1.80
2022-08-12T19:05:17.742Z,2.10
2022-08-12T19:07:50.117Z,2.70
2022-08-12T19:10:27.779Z,2.70
2022-08-12T19:13:23.065Z,2.17
2022-08-12T19:15:53.330Z,1.80
2022-08-12T19:18:22.108Z,1.70
2022-08-12T19:20:50.635Z,1.70
2022-08-12T19:23:21.166Z,1.60
2022-08-12T19:26:01.354Z,1.80
2022-08-12T19:28:34.596Z,1.60
2022-08-12T19:31:45.363Z,1.63
2022-08-12T19:35:13.873Z,1.70
2022-08-12T19:37:14.994Z,1.70
2022-08-12T19:40:07.856Z,1.90
2022-08-12T19:42:30.885Z,1.40
2022-08-12T19:45:02.302Z,1.70
2022-08-12T19:47:39.110Z,1.53
2022-08-12T19:50:11.320Z,1.90
2022-08-12T19:52:40.896Z,1.63
2022-08-12T19:55:19.441Z,1.87
2022-08-12T19:58:01.299Z,1.90
2022-08-12T20:00:30.617Z,1.80
2022-08-12T20:03:00.446Z,1.70
2022-08-12T20:06:05.680Z,1.80
2022-08-12T20:08:27.927Z,1.80
2022-08-12T20:12:11.511Z,1.87
2022-08-12T20:14:00.294Z,2.00
2022-08-12T20:16:52.806Z,2.00
2022-08-12T20:19:15.225Z,1.93
2022-08-12T20:21:43.547Z,2.10
2022-08-12T20:24:12.801Z,2.00
2022-08-12T20:26:42.103Z,2.00
2022-08-12T20:29:10.109Z,1.90
2022-08-12T20:31:37.439Z,2.10
2022-08-12T20:34:04.909Z,2.10
2022-08-12T20:36:42.648Z,1.93
2022-08-12T20:39:34.026Z,2.00
2022-08-12T20:42:02.373Z,2.00
2022-08-12T20:44:30.548Z,2.20
2022-08-12T20:47:06.353Z,2.10
2022-08-12T20:49:45.767Z,2.10
2022-08-12T20:52:18.340Z,2.00
2022-08-12T20:54:50.060Z,2.03
2022-08-12T20:57:19.459Z,2.20
2022-08-12T20:59:51.893Z,2.10
2022-08-12T21:02:24.580Z,2.10
2022-08-12T21:05:20.143Z,1.90
2022-08-12T21:07:52.208Z,2.20
2022-08-12T21:10:20.830Z,2.23
2022-08-12T21:12:48.370Z,2.20
2022-08-12T21:15:24.229Z,1.90
2022-08-12T21:18:11.320Z,2.00
2022-08-12T21:20:52.740Z,2.10
2022-08-12T21:23:23.861Z,2.00
2022-08-12T21:25:56.761Z,2.83
2022-08-12T21:28:31.459Z,2.10
2022-08-12T21:32:34.275Z,2.30
2022-08-12T21:34:06.717Z,2.30
2022-08-12T21:36:36.016Z,2.30
2022-08-12T21:39:18.348Z,2.77
2022-08-12T21:41:50.264Z,2.20
2022-08-12T21:44:24.716Z,2.03
2022-08-12T21:47:19.641Z,2.13
2022-08-12T21:49:55.408Z,2.43
2022-08-12T21:52:28.387Z,2.30
2022-08-12T21:55:02.451Z,2.47
2022-08-12T21:57:36.304Z,2.10
2022-08-12T22:00:16.989Z,2.20
2022-08-12T22:03:03.263Z,2.30
2022-08-12T22:05:49.355Z,2.10
2022-08-12T22:08:22.310Z,2.10
2022-08-12T22:10:52.776Z,2.10
2022-08-12T22:14:02.525Z,2.20
2022-08-12T22:16:11.605Z,2.07
2022-08-12T22:18:39.477Z,1.80
2022-08-12T22:21:07.147Z,2.00
2022-08-12T22:23:52.336Z,2.00
2022-08-12T22:26:36.902Z,2.10
2022-08-12T22:29:23.694Z,2.00
2022-08-12T22:31:54.598Z,2.17
2022-08-12T22:34:22.260Z,2.70
2022-08-12T22:36:57.320Z,2.10
2022-08-12T22:39:26.480Z,2.27
2022-08-12T22:42:12.695Z,2.50
2022-08-12T22:44:58.720Z,2.30
2022-08-12T22:47:53.458Z,2.13
2022-08-12T22:50:27.467Z,2.50
2022-08-12T22:53:15.998Z,2.50
2022-08-12T22:56:00.565Z,2.70
2022-08-12T22:58:36.691Z,2.40
2022-08-12T23:01:08.381Z,2.47
2022-08-12T23:03:48.558Z,2.30
2022-08-12T23:06:19.458Z,2.30
2022-08-12T23:08:46.914Z,2.70
2022-08-12T23:11:16.319Z,2.20
2022-08-12T23:13:54.893Z,2.10
2022-08-12T23:16:28.768Z,2.20
2022-08-12T23:19:01.848Z,2.30
2022-08-12T23:22:04.909Z,2.13
2022-08-12T23:24:35.040Z,2.20
2022-08-12T23:27:21.356Z,2.30
2022-08-12T23:30:17.889Z,2.20
2022-08-12T23:32:36.999Z,2.67
2022-08-12T23:35:06.418Z,2.60
2022-08-12T23:37:47.625Z,2.60
2022-08-12T23:40:22.169Z,2.50
2022-08-12T23:42:51.994Z,2.67
2022-08-12T23:45:30.809Z,2.40
2022-08-12T23:47:59.845Z,2.43
2022-08-12T23:50:34.353Z,2.40
2022-08-12T23:53:05.343Z,2.30
2022-08-12T23:55:40.481Z,2.50
2022-08-12T23:58:17.331Z,2.40
